createdAt,value
2023-02-24T00:01:42.264Z,101418.77
2023-02-24T00:05:15.053Z,101413.84
2023-02-24T00:09:06.886Z,101411.15
2023-02-24T00:13:00.673Z,101408.08
2023-02-24T00:16:34.230Z,101401.61
2023-02-24T00:20:25.946Z,101394.80
2023-02-24T00:24:19.606Z,101384.80
2023-02-24T00:28:14.955Z,101375.30
2023-02-24T00:32:08.876Z,101371.91
2023-02-24T00:35:59.871Z,101368.14
2023-02-24T00:39:53.105Z,101370.20
2023-02-24T00:43:45.082Z,101361.38
2023-02-24T00:47:38.606Z,101354.20
2023-02-24T00:51:30.205Z,101350.46
2023-02-24T00:55:23.732Z,101344.11
2023-02-24T00:58:56.348Z,101336.95
2023-02-24T01:02:47.929Z,101332.44
2023-02-24T01:06:41.664Z,101326.31
2023-02-24T01:10:33.327Z,101319.42
2023-02-24T01:14:29.862Z,101315.04
2023-02-24T01:18:22.939Z,101308.94
2023-02-24T01:22:16.843Z,101303.84
2023-02-24T01:26:09.362Z,101302.25
2023-02-24T01:30:02.825Z,101296.31
2023-02-24T01:33:55.631Z,101289.20
2023-02-24T01:37:49.460Z,101292.02
2023-02-24T01:41:41.109Z,101280.16
2023-02-24T01:45:34.908Z,101272.02
2023-02-24T01:49:28.438Z,101265.48
2023-02-24T01:53:21.834Z,101261.33
2023-02-24T01:57:12.954Z,101260.02
2023-02-24T02:01:06.748Z,101260.20
2023-02-24T02:04:39.499Z,101256.63
2023-02-24T02:08:33.256Z,101258.63
2023-02-24T02:12:27.062Z,101256.70
2023-02-24T02:16:20.234Z,101256.93
2023-02-24T02:20:17.990Z,101247.75
2023-02-24T02:24:10.510Z,101242.15
2023-02-24T02:28:04.162Z,101243.25
2023-02-24T02:31:37.507Z,101235.21
2023-02-24T02:35:28.974Z,101229.52
2023-02-24T02:39:22.006Z,101229.60
2023-02-24T02:43:13.430Z,101225.60
2023-02-24T02:47:07.580Z,101223.39
2023-02-24T02:50:59.404Z,101222.07
2023-02-24T02:54:52.896Z,101216.16
2023-02-24T02:58:44.262Z,101210.33
2023-02-24T03:02:38.001Z,101206.42
2023-02-24T03:06:30.369Z,101202.95
2023-02-24T03:10:25.700Z,101198.20
2023-02-24T03:14:19.061Z,101189.52
2023-02-24T03:18:12.387Z,101186.05
2023-02-24T03:22:04.492Z,101180.23
2023-02-24T03:25:59.071Z,101170.70
2023-02-24T03:29:53.729Z,101173.22
2023-02-24T03:33:48.352Z,101159.20
2023-02-24T03:37:40.768Z,101148.04
2023-02-24T03:41:34.558Z,101145.48
2023-02-24T03:45:27.848Z,101131.80
2023-02-24T03:49:22.415Z,101127.15
2023-02-24T03:52:55.650Z,101115.84
2023-02-24T03:56:47.406Z,101106.89
2023-02-24T04:00:42.373Z,101100.92
2023-02-24T04:04:35.178Z,101094.20
2023-02-24T04:08:42.426Z,101093.90
2023-02-24T04:12:34.575Z,101086.80
2023-02-24T04:16:31.082Z,101082.59
2023-02-24T04:20:23.506Z,101079.09
2023-02-24T04:24:23.264Z,101073.86
2023-02-24T04:27:56.619Z,101064.83
2023-02-24T04:31:48.621Z,101059.07
2023-02-24T04:35:42.923Z,101053.80
2023-02-24T04:39:37.274Z,101047.38
2023-02-24T04:43:34.641Z,101048.98
2023-02-24T04:47:26.447Z,101039.88
2023-02-24T04:51:21.314Z,101038.77
2023-02-24T04:55:14.016Z,101035.77
2023-02-24T04:59:07.757Z,101032.90
2023-02-24T05:02:40.738Z,101032.15
2023-02-24T05:06:32.316Z,101029.02
2023-02-24T05:10:26.186Z,101029.11
2023-02-24T05:14:19.337Z,101019.04
2023-02-24T05:18:12.432Z,101015.30
2023-02-24T05:22:03.630Z,101008.92
2023-02-24T05:25:57.425Z,101004.66
2023-02-24T05:29:29.814Z,101006.34
2023-02-24T05:33:21.721Z,100997.20
2023-02-24T05:37:15.334Z,100991.30
2023-02-24T05:41:06.636Z,100992.59
2023-02-24T05:45:00.688Z,100991.81
2023-02-24T05:48:52.860Z,100986.54
2023-02-24T05:52:46.629Z,100984.56
2023-02-24T05:56:38.708Z,100977.23
2023-02-24T06:00:31.054Z,100971.35
2023-02-24T06:04:26.832Z,100973.10
2023-02-24T06:07:59.764Z,100972.02
2023-02-24T06:11:51.469Z,100970.63
2023-02-24T06:15:44.517Z,100966.20
2023-02-24T06:19:17.866Z,100966.12
2023-02-24T06:23:11.794Z,100957.59
2023-02-24T06:27:03.484Z,100949.77
2023-02-24T06:30:56.988Z,100943.36
2023-02-24T06:34:50.565Z,100935.69
2023-02-24T06:38:44.334Z,100922.95
2023-02-24T06:42:16.978Z,100928.04
2023-02-24T06:46:09.031Z,100922.00
2023-02-24T06:50:04.569Z,100916.80
2023-02-24T06:53:36.866Z,100909.50
2023-02-24T06:57:28.445Z,100904.73
2023-02-24T07:01:22.306Z,100893.14
2023-02-24T07:05:13.849Z,100888.05
2023-02-24T07:09:05.978Z,100878.48
2023-02-24T07:13:00.281Z,100858.84
2023-02-24T07:16:52.137Z,100853.31
2023-02-24T07:20:45.996Z,100841.52
2023-02-24T07:24:37.798Z,100835.48
2023-02-24T07:28:31.560Z,100822.25
2023-02-24T07:32:23.983Z,100816.10
2023-02-24T07:36:18.542Z,100805.27
2023-02-24T07:39:51.950Z,100800.02
2023-02-24T07:43:44.096Z,100798.63
2023-02-24T07:47:37.309Z,100794.83
2023-02-24T07:51:29.210Z,100789.20
2023-02-24T07:55:22.887Z,100786.00
2023-02-24T07:59:15.237Z,100775.64
2023-02-24T08:03:08.523Z,100771.14
2023-02-24T08:07:00.043Z,100766.20
2023-02-24T08:10:53.141Z,100759.30
2023-02-24T08:14:46.755Z,100754.91
2023-02-24T08:18:40.678Z,100752.39
2023-02-24T08:22:32.981Z,100750.46
2023-02-24T08:26:26.643Z,100738.86
2023-02-24T08:30:19.025Z,100729.27
2023-02-24T08:34:13.198Z,100723.25
2023-02-24T08:38:05.096Z,100717.45
2023-02-24T08:41:59.097Z,100708.81
2023-02-24T08:45:51.053Z,100710.84
2023-02-24T08:49:47.579Z,100705.94
2023-02-24T08:53:38.774Z,100701.27
2023-02-24T08:57:32.387Z,100698.61
2023-02-24T09:01:26.177Z,100687.48
2023-02-24T09:04:58.936Z,100683.67
2023-02-24T09:09:03.778Z,100683.82
2023-02-24T09:12:57.780Z,100681.58
2023-02-24T09:16:49.914Z,100680.63
2023-02-24T09:20:43.720Z,100673.91
2023-02-24T09:24:36.067Z,100668.64
2023-02-24T09:28:29.990Z,100663.28
2023-02-24T09:32:22.213Z,100667.42
2023-02-24T09:36:15.656Z,100662.16
2023-02-24T09:40:07.612Z,100657.24
2023-02-24T09:44:01.526Z,100653.89
2023-02-24T09:47:55.315Z,100651.52
2023-02-24T09:51:31.789Z,100640.55
2023-02-24T09:55:25.909Z,100633.36
2023-02-24T09:59:18.995Z,100621.60
2023-02-24T10:02:56.212Z,100604.76
2023-02-24T10:06:49.899Z,100606.27
2023-02-24T10:10:45.204Z,100597.09
2023-02-24T10:14:44.038Z,100591.05
2023-02-24T10:18:37.092Z,100580.20
2023-02-24T10:22:30.654Z,100567.86
2023-02-24T10:26:23.444Z,100558.59
2023-02-24T10:30:00.403Z,100558.35
2023-02-24T10:33:53.990Z,100554.34
2023-02-24T10:37:46.137Z,100547.30
2023-02-24T10:41:41.013Z,100538.48
2023-02-24T10:45:36.147Z,100533.01
2023-02-24T10:49:29.630Z,100527.42
2023-02-24T10:53:26.891Z,100512.30
2023-02-24T10:57:22.034Z,100508.27
2023-02-24T11:01:22.280Z,100509.26
2023-02-24T11:05:18.278Z,100506.63
2023-02-24T11:09:41.886Z,100498.84
2023-02-24T11:13:23.537Z,100498.55
2023-02-24T11:17:23.262Z,100491.21
2023-02-24T11:21:25.036Z,100483.10
2023-02-24T11:25:22.370Z,100474.73
2023-02-24T11:29:25.129Z,100463.58
2023-02-24T11:33:23.536Z,100459.41
2023-02-24T11:37:26.298Z,100449.79
2023-02-24T11:41:24.542Z,100445.77
2023-02-24T11:45:25.961Z,100435.70
2023-02-24T11:49:24.410Z,100429.30
2023-02-24T11:53:26.085Z,100426.93
2023-02-24T11:57:24.978Z,100416.29
2023-02-24T12:01:27.229Z,100411.83
2023-02-24T12:05:25.561Z,100406.46
2023-02-24T12:09:27.940Z,100403.91
2023-02-24T12:13:26.506Z,100394.70
2023-02-24T12:17:29.046Z,100385.06
2023-02-24T12:21:28.621Z,100384.86
2023-02-24T12:25:30.602Z,100379.44
2023-02-24T12:29:28.502Z,100370.13
2023-02-24T12:33:30.144Z,100364.23
2023-02-24T12:37:29.564Z,100361.81
2023-02-24T12:41:31.794Z,100356.89
2023-02-24T12:45:16.507Z,100351.83
2023-02-24T12:49:14.586Z,100336.60
2023-02-24T12:53:16.142Z,100335.15
2023-02-24T12:57:09.639Z,100332.33
2023-02-24T13:01:01.658Z,100325.15
2023-02-24T13:05:05.012Z,100320.98
2023-02-24T13:09:08.286Z,100308.21
2023-02-24T13:13:06.735Z,100311.17
2023-02-24T13:17:09.154Z,100312.42
2023-02-24T13:21:07.884Z,100307.84
2023-02-24T13:25:10.104Z,100303.05
2023-02-24T13:29:10.696Z,100293.64
2023-02-24T13:33:12.705Z,100295.67
2023-02-24T13:37:10.641Z,100291.78
2023-02-24T13:41:11.728Z,100284.29
2023-02-24T13:44:59.081Z,100278.63
2023-02-24T13:48:48.852Z,100280.63
2023-02-24T13:52:36.554Z,100271.05
2023-02-24T13:56:23.573Z,100269.91
2023-02-24T14:00:11.762Z,100267.70
2023-02-24T14:03:59.874Z,100255.02
2023-02-24T14:07:45.889Z,100250.60
2023-02-24T14:11:37.483Z,100240.91
2023-02-24T14:15:24.755Z,100239.94
2023-02-24T14:19:11.453Z,100227.88
2023-02-24T14:22:58.460Z,100227.01
2023-02-24T14:26:46.918Z,100225.66
2023-02-24T14:30:33.308Z,100219.30
2023-02-24T14:34:20.699Z,100214.23
2023-02-24T14:38:12.746Z,100207.20
2023-02-24T14:41:58.252Z,100200.38
2023-02-24T14:45:43.689Z,100194.17
2023-02-24T14:49:29.428Z,100191.30
2023-02-24T14:53:16.700Z,100189.89
2023-02-24T14:57:03.675Z,100183.86
2023-02-24T15:00:50.970Z,100178.27
2023-02-24T15:04:38.132Z,100171.67
2023-02-24T15:08:25.123Z,100170.70
2023-02-24T15:12:12.062Z,100164.17
2023-02-24T15:16:01.701Z,100163.58
2023-02-24T15:19:48.719Z,100156.00
2023-02-24T15:23:35.830Z,100149.91
2023-02-24T15:27:22.547Z,100151.61
2023-02-24T15:31:11.210Z,100142.27
2023-02-24T15:35:00.977Z,100145.83
2023-02-24T15:38:46.368Z,100140.04
2023-02-24T15:42:34.077Z,100134.42
2023-02-24T15:46:19.771Z,100133.73
2023-02-24T15:50:05.359Z,100132.86
2023-02-24T15:53:50.820Z,100128.91
2023-02-24T15:57:37.866Z,100121.56
2023-02-24T16:01:24.807Z,100119.65
2023-02-24T16:05:11.693Z,100113.30
2023-02-24T16:08:57.342Z,100112.33
2023-02-24T16:12:44.375Z,100106.34
2023-02-24T16:16:31.390Z,100106.26
2023-02-24T16:20:18.474Z,100102.45
2023-02-24T16:24:05.291Z,100104.45
2023-02-24T16:27:52.348Z,100099.84
2023-02-24T16:31:39.564Z,100097.55
2023-02-24T16:35:26.836Z,100094.62
2023-02-24T16:39:12.799Z,100091.08
2023-02-24T16:42:59.813Z,100085.30
2023-02-24T16:46:46.767Z,100084.61
2023-02-24T16:50:34.955Z,100074.98
2023-02-24T16:54:25.881Z,100079.98
2023-02-24T16:58:12.908Z,100069.17
2023-02-24T17:02:15.099Z,100065.44
2023-02-24T17:06:14.005Z,100058.33
2023-02-24T17:10:16.231Z,100055.86
2023-02-24T17:14:15.927Z,100047.41
2023-02-24T17:18:21.628Z,100043.94
2023-02-24T17:22:20.160Z,100039.80
2023-02-24T17:26:22.840Z,100028.38
2023-02-24T17:30:21.083Z,100022.79
2023-02-24T17:34:23.131Z,100018.34
2023-02-24T17:38:22.021Z,100018.09
2023-02-24T17:42:23.594Z,100009.10
2023-02-24T17:46:22.371Z,100007.65
2023-02-24T17:50:24.640Z,100004.51
2023-02-24T17:54:23.106Z,99998.20
2023-02-24T17:58:26.253Z,99992.48
2023-02-24T18:02:25.316Z,99993.96
2023-02-24T18:06:28.228Z,99995.61
2023-02-24T18:10:11.777Z,99990.56
2023-02-24T18:14:10.257Z,99992.48
2023-02-24T18:18:12.660Z,99990.98
2023-02-24T18:22:10.215Z,99989.88
2023-02-24T18:26:11.962Z,99988.80
2023-02-24T18:30:11.203Z,99989.46
2023-02-24T18:34:13.092Z,99979.33
2023-02-24T18:38:12.161Z,99974.64
2023-02-24T18:42:13.665Z,99968.77
2023-02-24T18:46:14.259Z,99966.94
2023-02-24T18:50:16.735Z,99965.27
2023-02-24T18:54:14.445Z,99958.85
2023-02-24T18:58:16.156Z,99951.64
2023-02-24T19:02:14.335Z,99948.54
2023-02-24T19:06:16.228Z,99945.16
2023-02-24T19:10:17.961Z,99942.22
2023-02-24T19:14:16.263Z,99936.44
2023-02-24T19:18:19.771Z,99930.41
2023-02-24T19:22:18.176Z,99925.35
2023-02-24T19:26:20.179Z,99923.45
2023-02-24T19:30:19.175Z,99916.59
2023-02-24T19:34:17.253Z,99921.21
2023-02-24T19:38:16.592Z,99914.77
2023-02-24T19:42:19.343Z,99910.41
2023-02-24T19:46:17.331Z,99905.44
2023-02-24T19:50:19.370Z,99897.36
2023-02-24T19:54:18.413Z,99893.98
2023-02-24T19:58:23.794Z,99890.23
2023-02-24T20:02:16.821Z,99883.63
2023-02-24T20:06:15.329Z,99879.59
2023-02-24T20:10:17.876Z,99876.53
2023-02-24T20:14:20.443Z,99872.48
2023-02-24T20:18:22.804Z,99869.36
2023-02-24T20:22:21.350Z,99865.77
2023-02-24T20:26:29.436Z,99867.12
2023-02-24T20:30:27.455Z,99860.65
2023-02-24T20:34:30.054Z,99856.33
2023-02-24T20:38:29.404Z,99849.52
2023-02-24T20:42:31.448Z,99845.51
2023-02-24T20:46:30.559Z,99839.20
2023-02-24T20:50:32.998Z,99835.65
2023-02-24T20:54:32.370Z,99832.31
2023-02-24T20:58:34.414Z,99831.23
2023-02-24T21:02:32.500Z,99832.33
2023-02-24T21:06:34.507Z,99821.24
2023-02-24T21:10:36.541Z,99819.96
2023-02-24T21:14:39.487Z,99817.39
2023-02-24T21:18:43.591Z,99813.83
2023-02-24T21:22:45.342Z,99808.66
2023-02-24T21:26:43.654Z,99804.54
2023-02-24T21:30:46.265Z,99799.23
2023-02-24T21:34:44.401Z,99794.16
2023-02-24T21:38:46.513Z,99790.62
2023-02-24T21:42:35.871Z,99791.52
2023-02-24T21:46:21.544Z,99784.55
2023-02-24T21:50:07.088Z,99779.03
2023-02-24T21:53:53.811Z,99770.41
2023-02-24T21:57:46.700Z,99770.24
2023-02-24T22:01:38.505Z,99766.33
2023-02-24T22:05:34.379Z,99763.13
2023-02-24T22:09:33.770Z,99757.70
2023-02-24T22:13:33.750Z,99747.38
2023-02-24T22:17:33.884Z,99745.41
2023-02-24T22:21:29.088Z,99747.59
2023-02-24T22:25:28.980Z,99739.88
2023-02-24T22:29:25.396Z,99735.64
2023-02-24T22:33:25.018Z,99736.34
2023-02-24T22:37:18.522Z,99732.59
2023-02-24T22:41:03.983Z,99728.02
2023-02-24T22:44:49.111Z,99725.80
2023-02-24T22:48:34.567Z,99720.64
2023-02-24T22:52:20.018Z,99717.59
2023-02-24T22:56:05.574Z,99716.52
2023-02-24T22:59:51.023Z,99709.58
2023-02-24T23:03:37.445Z,99705.34
2023-02-24T23:07:30.052Z,99699.48
2023-02-24T23:11:22.738Z,99688.00
2023-02-24T23:15:18.506Z,99684.91
2023-02-24T23:19:16.132Z,99688.88
2023-02-24T23:23:11.136Z,99679.05
2023-02-24T23:27:11.063Z,99675.73
2023-02-24T23:31:07.420Z,99675.08
2023-02-24T23:35:08.506Z,99671.44
2023-02-24T23:39:04.445Z,99663.24
2023-02-24T23:42:55.771Z,99659.38
2023-02-24T23:46:40.994Z,99658.27
2023-02-24T23:50:32.372Z,99651.44
2023-02-24T23:54:29.698Z,99646.20
2023-02-24T23:58:31.360Z,99635.48
